• Join FlightAware (Why Join?)
  • Login
  • US Flag 
04:46AM EST


 

Airport Tracker/Info


-or-


 

Live Flight TrackerFlight Track Log ✈ ENY2840 ✈ 31-Aug-2014 ✈ KLGA - KSTL

Flight Track Log - Related Links

Times and Time Zones

All times are in EDT time to prevent confusion due to time zone crossing. See the ENY2840 flight status page for this flight to view local times or setup timezone preferences in your user account.

Time Position Orientation Groundspeed Altitude Reporting Facility
EDT Latitude Longitude Course Direction KTS MPH feet Rate Location/Type
02:34PM 40.7667 -73.8500 270° West 161 185 800  Level New York TRACON
02:35PM 40.7667 -73.7833 90° East 232 267 2,600 2,050 Climbing New York TRACON
02:36PM 40.7564 -74.2814 270° West  Level Estimated
02:36PM 40.8333 -73.7667 11° North 263 303 4,900  Level New York TRACON
02:37PM 40.7827 -74.4135 285° West  Level FlightAware Approximate
02:37PM 40.8500 -73.8500 285° West 254 292 7,600  Level New York TRACON
02:38PM 40.7834 -74.5451 270° West  Level FlightAware Approximate
02:38PM 40.8500 -73.9333 270° West 260 299 10,300  Level New York TRACON
02:39PM 40.7833 -74.6817 270° West  Level FlightAware Approximate
02:39PM 40.8500 -74.0333 270° West 268 308 12,700  Level New York TRACON
02:40PM 40.8167 -74.1333 246° West 311 358 14,000 1,425 Climbing New York TRACON
02:42PM 40.7828 -74.3367 258° West 355 409 16,500 1,078 Climbing New York Center
02:43PM 40.7575 -74.4778 257° West 366 421 17,000 590 Climbing New York Center
02:44PM 40.7392 -74.6000 259° West 381 438 17,700 1,041 Climbing New York Center
02:45PM 40.7069 -74.7542 255° West 397 457 19,100 1,400 Climbing New York Center
02:46PM 40.6811 -74.8950 256° West 397 457 20,500 1,322 Climbing New York Center
02:47PM 40.6536 -75.0300 255° West 392 451 21,700 1,109 Climbing New York Center
02:48PM 40.6256 -75.1678 255° West 392 451 22,700 992 Climbing New York Center
02:49PM 40.5950 -75.3108 254° West 397 457 23,700 942 Climbing New York Center
02:50PM 40.5664 -75.4564 256° West 403 464 24,600 893 Climbing New York Center
02:51PM 40.5356 -75.6017 254° West 408 470 25,500 857 Climbing New York Center
02:52PM 40.5047 -75.7442 254° West 413 475 26,300 800 Climbing New York Center
02:53PM 40.4736 -75.8892 254° West 413 475 27,100 850 Climbing New York Center
02:54PM 40.4336 -76.0392 251° West 419 482 28,000 857 Climbing New York Center
02:55PM 40.4000 -76.1836 253° West 419 482 28,800 807 Climbing New York Center
02:56PM 40.3661 -76.3308 253° West 419 482 29,600 800 Climbing New York Center
02:57PM 40.3319 -76.4781 253° West 419 482 30,400 787 Climbing New York Center
02:58PM 40.2978 -76.6222 253° West 419 482 31,200 850 Climbing New York Center
02:59PM 40.2611 -76.7686 252° West 419 482 32,100 908 Climbing New York Center
03:00PM 40.2269 -76.9097 252° West 419 482 33,000 950 Climbing New York Center
03:01PM 40.1922 -77.0536 253° West 413 475 34,000 1,008 Climbing New York Center
03:02PM 40.1717 -77.2011 260° West 413 475 35,000 972 Climbing New York Center
03:03PM 40.1664 -77.4017 268° West 413 475 36,300 1,000 Climbing Cleveland Center
03:04PM 40.1639 -77.5469 269° West 406 467 37,400 829 Climbing Cleveland Center
03:05PM 40.1633 -77.6908 270° West 401 461 38,000 290 Climbing Cleveland Center
03:06PM 40.1619 -77.8356 269° West 400 460 38,000  Level Cleveland Center
03:07PM 40.1611 -77.9797 270° West 399 459 38,000  Level Cleveland Center
03:08PM 40.1603 -78.1231 270° West 399 459 38,000  Level Cleveland Center
03:09PM 40.1589 -78.2947 269° West 398 458 38,000  Level Cleveland Center
03:10PM 40.1583 -78.4378 270° West 398 458 38,000  Level Cleveland Center
03:11PM 40.1567 -78.5811 269° West 398 458 38,000  Level Cleveland Center
03:12PM 40.1556 -78.7256 269° West 398 458 38,000  Level Cleveland Center
03:13PM 40.1542 -78.8692 269° West 398 458 38,000  Level Cleveland Center
03:14PM 40.1528 -79.0128 269° West 397 457 38,000  Level Cleveland Center
03:15PM 40.1503 -79.1550 269° West 396 456 38,000  Level Cleveland Center
03:16PM 40.1475 -79.3228 269° West 394 453 38,000  Level Cleveland Center
03:17PM 40.1447 -79.4664 269° West 394 453 38,000  Level Cleveland Center
03:18PM 40.1419 -79.6094 269° West 394 453 38,000  Level Cleveland Center
03:19PM 40.1386 -79.7528 268° West 394 453 38,000  Level Cleveland Center
03:20PM 40.1353 -79.8975 268° West 394 453 38,000  Level Cleveland Center
03:22PM 40.1322 -80.0406 268° West 394 453 38,000  Level Cleveland Center
03:23PM 40.1289 -80.1861 268° West 394 453 38,000  Level Cleveland Center
03:24PM 40.1261 -80.3297 269° West 393 452 38,000  Level Cleveland Center
03:25PM 40.1217 -80.4742 268° West 393 452 38,000  Level Cleveland Center
03:26PM 40.1178 -80.6458 268° West 392 451 38,000  Level Cleveland Center
03:27PM 40.1133 -80.7892 268° West 395 455 38,000  Level Cleveland Center
03:28PM 40.1100 -80.9308 268° West 394 453 38,000  Level Cleveland Center
03:29PM 40.1044 -81.0731 267° West 393 452 38,000  Level Cleveland Center
03:30PM 40.0997 -81.2147 268° West 393 452 38,000  Level Cleveland Center
03:31PM 40.0956 -81.3550 268° West 392 451 38,000  Level Cleveland Center
03:32PM 40.0906 -81.4961 267° West 391 450 38,000 387 Level Cleveland Center
03:33PM 40.0844 -81.6353 267° West 390 449 38,800 829 Climbing Cleveland Center
03:34PM 40.0792 -81.7853 267° West 380 437 39,700 585 Climbing Cleveland Center
03:35PM 40.0747 -81.9194 268° West 375 432 40,000 145 Climbing Cleveland Center
03:36PM 40.0694 -82.0567 267° West 376 433 40,000  Level Cleveland Center
03:37PM 40.0639 -82.1950 267° West 378 435 40,000  Level Cleveland Center
03:38PM 40.0567 -82.3583 267° West 378 435 40,000  Level Cleveland Center
03:39PM 40.0511 -82.4967 267° West 379 436 40,000  Level Cleveland Center
03:40PM 40.0450 -82.6367 267° West 384 442 40,000  Level Cleveland Center
03:41PM 40.0389 -82.7753 267° West 385 443 40,000  Level Cleveland Center
03:42PM 40.0314 -82.9142 266° West 386 444 40,000  Level Cleveland Center
03:43PM 40.0250 -83.0536 267° West 387 445 40,000  Level Cleveland Center
03:44PM 40.0172 -83.2139 266° West 393 452 40,000  Level Cleveland Center
03:45PM 40.0089 -83.3906 267° West 390 449 40,000  Level Indianapolis Center
03:46PM 40.0031 -83.5311 267° West 394 453 40,000  Level Indianapolis Center
03:47PM 39.9947 -83.6728 266° West 398 458 40,000  Level Indianapolis Center
03:48PM 39.9858 -83.8144 265° West 398 458 40,000  Level Indianapolis Center
03:49PM 39.9761 -83.9858 266° West 398 458 40,000  Level Indianapolis Center
03:50PM 39.9678 -84.1306 266° West 399 459 40,000  Level Indianapolis Center
03:51PM 39.9589 -84.2764 265° West 401 461 40,000  Level Indianapolis Center
03:53PM 39.9503 -84.4225 266° West 403 464 40,000  Level Indianapolis Center
03:54PM 39.9406 -84.5692 265° West 404 465 40,000  Level Indianapolis Center
03:55PM 39.9314 -84.7164 265° West 405 466 40,000  Level Indianapolis Center
03:56PM 39.9219 -84.8633 265° West 407 468 40,000  Level Indianapolis Center
03:57PM 39.9117 -85.0261 265° West 411 473 40,000  Level Indianapolis Center
03:58PM 39.9017 -85.1731 265° West 411 473 40,000  Level Indianapolis Center
03:59PM 39.8900 -85.3206 264° West 411 473 40,000  Level Indianapolis Center
04:00PM 39.8639 -85.4642 257° West 410 472 40,000  Level Indianapolis Center
04:01PM 39.8386 -85.6086 257° West 410 472 40,000  Level Indianapolis Center
04:02PM 39.8142 -85.7525 258° West 410 472 40,000  Level Indianapolis Center
04:03PM 39.7844 -85.9250 257° West 410 472 40,000  Level Indianapolis Center
04:04PM 39.7586 -86.0672 257° West 409 471 40,000  Level Indianapolis Center
04:05PM 39.7344 -86.1997 257° West 409 471 40,000  Level Indianapolis Center
04:06PM 39.7094 -86.3472 258° West 411 473 40,000  Level Indianapolis Center
04:07PM 39.6833 -86.4908 257° West 416 479 40,000  Level Indianapolis Center
04:08PM 39.6528 -86.6625 257° West 414 476 40,000  Level Indianapolis Center
04:09PM 39.6269 -86.8061 257° West 413 475 40,000  Level Indianapolis Center
04:10PM 39.5997 -86.9514 256° West 413 475 40,000 -639 Level Indianapolis Center
04:11PM 39.5733 -87.0958 257° West 413 475 38,700 -1,377 Descending Indianapolis Center
04:12PM 39.5458 -87.2439 257° West 416 479 37,200 -1,415 Descending Indianapolis Center
04:13PM 39.5167 -87.3933 256° West 426 490 35,800 -1,415 Descending Indianapolis Center
04:14PM 39.4900 -87.5422 257° West 427 491 34,300 -1,426 Descending Indianapolis Center
04:15PM 39.4619 -87.6867 256° West 419 482 32,900 -1,317 Descending Indianapolis Center
04:16PM 39.4336 -87.8306 256° West 413 475 31,600 -1,317 Descending Indianapolis Center
04:17PM 39.3967 -88.0142 255° West 434 499 30,200 -1,082 Descending Indianapolis Center
04:18PM 39.3628 -88.1683 254° West 447 514 29,400 -1,171 Descending Indianapolis Center
04:19PM 39.3225 -88.3194 251° West 430 495 27,800 -1,512 Descending Indianapolis Center
04:20PM 39.2847 -88.4592 251° West 417 480 26,300 -1,463 Descending Indianapolis Center
04:21PM 39.2478 -88.5989 251° West 411 473 24,800 -1,463 Descending Indianapolis Center
04:22PM 39.2092 -88.7406 251° West 413 475 23,300 -1,475 Descending Indianapolis Center
04:23PM 39.1697 -88.8875 251° West 428 493 21,800 -1,463 Descending Indianapolis Center
04:24PM 39.1292 -89.0328 250° West 430 495 20,300 -1,415 Descending Indianapolis Center
04:25PM 39.0911 -89.1750 251° West 425 489 18,900 -1,415 Descending Indianapolis Center
04:26PM 39.0592 -89.3100 253° West 403 464 17,400 -1,417 Descending Indianapolis Center
04:28PM 39.0183 -89.4961 254° West 389 448 15,500 -1,385 Descending Kansas City Center
04:29PM 38.9839 -89.6375 253° West 384 442 14,100 -1,268 Descending Kansas City Center
04:30PM 38.9425 -89.7683 248° West 371 427 12,900 -1,113 Descending Kansas City Center
04:31PM 38.9111 -89.8664 248° West 366 421 11,800 -1,113 Descending Kansas City Center
04:32PM 38.8706 -89.9928 248° West 319 367 10,600 -1,073 Descending Kansas City Center
04:33PM 38.8419 -90.0825 248° West 278 320 9,600 -1,073 Descending Kansas City Center
04:34PM 38.8128 -90.1736 248° West 277 319 8,400 -1,161 Descending Kansas City Center
04:35PM 38.8172 -90.2644 274° West 273 314 7,200 -1,113 Descending Kansas City Center
04:36PM 38.8536 -90.3431 301° West 262 302 6,100 -1,366 Descending Kansas City Center
04:37PM 38.8786 -90.4322 290° West 233 268 4,400 -1,415 Descending Kansas City Center
04:38PM 38.8317 -90.4661 209° Southwest 200 230 3,200 -1,161 Descending Kansas City Center
04:39PM 38.7911 -90.4500 163° South 157 181 2,000 -968 Descending Kansas City Center
04:40PM 38.7692 -90.4094 125° Southeast 145 167 1,200 -677 Descending Kansas City Center
04:41PM 38.7492 -90.3675 121° Southeast 140 161 600 -581 Descending Kansas City Center